TAM3910 SBSP-SBRJ
Flight info
| Callsign | TAM3910 |
|---|---|
| Flight time | 0h 38m |
| Altitude | 25000 |
| Route | NIBRU UZ171 KEVUN |
| Aircraft | A319/M-SDE3FGHIRWY/LB1 |
Departure
| Time | 2026-05-04 13:03 |
|---|---|
| Airport | Congonhas–Deputado Freitas Nobre Airport (SBSP) |
Arrival
| Time | 2026-05-04 13:42 |
|---|---|
| Airport | Santos Dumont Airport (SBRJ) |
| Time | Latitude | Longitude | Altitude | Speed | Heading |
|---|---|---|---|---|---|
| 2026-05-04 12:53 | -23.62629 | -46.65888 | 2601 ft | 0 kts | 237° |
| 2026-05-04 12:57 | -23.62619 | -46.65871 | 2601 ft | 4 kts | 249° |
| 2026-05-04 12:58 | -23.62616 | -46.65845 | 2601 ft | 4 kts | 293° |
| 2026-05-04 12:58 | -23.62624 | -46.65832 | 2601 ft | 0 kts | 327° |
| 2026-05-04 13:00 | -23.62598 | -46.65850 | 2601 ft | 10 kts | 327° |
| 2026-05-04 13:00 | -23.62529 | -46.65899 | 2601 ft | 12 kts | 327° |
| 2026-05-04 13:00 | -23.62456 | -46.65952 | 2601 ft | 13 kts | 326° |
| 2026-05-04 13:01 | -23.62380 | -46.66006 | 2600 ft | 13 kts | 329° |
| 2026-05-04 13:01 | -23.62294 | -46.66043 | 2600 ft | 14 kts | 354° |
| 2026-05-04 13:01 | -23.62203 | -46.66067 | 2599 ft | 14 kts | 329° |
| 2026-05-04 13:01 | -23.62118 | -46.66128 | 2596 ft | 15 kts | 328° |
| 2026-05-04 13:02 | -23.62035 | -46.66107 | 2592 ft | 7 kts | 55° |
| 2026-05-04 13:02 | -23.62050 | -46.66076 | 2591 ft | 6 kts | 137° |
| 2026-05-04 13:02 | -23.62262 | -46.65926 | 2600 ft | 76 kts | 145° |
| 2026-05-04 13:02 | -23.62910 | -46.65479 | 2616 ft | 140 kts | 145° |
| 2026-05-04 13:03 | -23.63750 | -46.64901 | 3202 ft | 143 kts | 143° |
| 2026-05-04 13:03 | -23.64528 | -46.64248 | 3817 ft | 140 kts | 122° |
| 2026-05-04 13:03 | -23.65009 | -46.63300 | 4283 ft | 152 kts | 117° |
| 2026-05-04 13:03 | -23.65543 | -46.62214 | 4729 ft | 174 kts | 115° |
| 2026-05-04 13:04 | -23.66152 | -46.60982 | 5131 ft | 196 kts | 116° |
| 2026-05-04 13:04 | -23.66841 | -46.59602 | 5426 ft | 220 kts | 117° |
| 2026-05-04 13:04 | -23.67617 | -46.58060 | 5778 ft | 245 kts | 117° |
| 2026-05-04 13:04 | -23.68483 | -46.56349 | 6257 ft | 269 kts | 118° |
| 2026-05-04 13:05 | -23.69428 | -46.54488 | 6853 ft | 289 kts | 118° |
| 2026-05-04 13:05 | -23.70396 | -46.52584 | 7771 ft | 292 kts | 119° |
| 2026-05-04 13:05 | -23.71332 | -46.50564 | 8648 ft | 298 kts | 110° |
| 2026-05-04 13:05 | -23.71784 | -46.48380 | 9496 ft | 302 kts | 94° |
| 2026-05-04 13:06 | -23.71658 | -46.46052 | 10360 ft | 306 kts | 81° |
| 2026-05-04 13:06 | -23.71313 | -46.43688 | 10775 ft | 327 kts | 81° |
| 2026-05-04 13:06 | -23.70944 | -46.41149 | 11044 ft | 350 kts | 81° |
| 2026-05-04 13:06 | -23.70560 | -46.38504 | 11530 ft | 363 kts | 81° |
| 2026-05-04 13:07 | -23.70155 | -46.35723 | 12209 ft | 370 kts | 82° |
| 2026-05-04 13:07 | -23.69759 | -46.32967 | 12898 ft | 375 kts | 82° |
| 2026-05-04 13:07 | -23.69349 | -46.30094 | 13622 ft | 381 kts | 82° |
| 2026-05-04 13:07 | -23.68945 | -46.27250 | 14284 ft | 387 kts | 82° |
| 2026-05-04 13:08 | -23.68531 | -46.24332 | 14889 ft | 392 kts | 82° |
| 2026-05-04 13:08 | -23.68111 | -46.21376 | 15484 ft | 397 kts | 82° |
| 2026-05-04 13:08 | -23.67686 | -46.18409 | 16062 ft | 402 kts | 82° |
| 2026-05-04 13:08 | -23.67248 | -46.15351 | 16648 ft | 407 kts | 82° |
| 2026-05-04 13:09 | -23.66806 | -46.12272 | 17214 ft | 413 kts | 82° |
| 2026-05-04 13:09 | -23.66361 | -46.09162 | 17779 ft | 418 kts | 81° |
| 2026-05-04 13:09 | -23.65911 | -46.06012 | 18332 ft | 423 kts | 81° |
| 2026-05-04 13:09 | -23.65455 | -46.02824 | 18860 ft | 428 kts | 81° |
| 2026-05-04 13:10 | -23.64992 | -45.99601 | 19358 ft | 432 kts | 81° |
| 2026-05-04 13:10 | -23.64524 | -45.96358 | 19872 ft | 435 kts | 81° |
| 2026-05-04 13:10 | -23.64051 | -45.93082 | 20390 ft | 439 kts | 81° |
| 2026-05-04 13:10 | -23.63574 | -45.89778 | 20929 ft | 443 kts | 81° |
| 2026-05-04 13:11 | -23.63091 | -45.86449 | 21474 ft | 446 kts | 82° |
| 2026-05-04 13:11 | -23.62603 | -45.83095 | 21989 ft | 450 kts | 82° |
| 2026-05-04 13:11 | -23.62110 | -45.79717 | 22506 ft | 453 kts | 82° |
| 2026-05-04 13:11 | -23.61614 | -45.76312 | 23009 ft | 456 kts | 82° |
| 2026-05-04 13:12 | -23.61115 | -45.72885 | 23512 ft | 459 kts | 82° |
| 2026-05-04 13:12 | -23.60611 | -45.69438 | 23970 ft | 462 kts | 82° |
| 2026-05-04 13:12 | -23.60102 | -45.65959 | 24365 ft | 466 kts | 82° |
| 2026-05-04 13:12 | -23.59591 | -45.62461 | 24737 ft | 470 kts | 82° |
| 2026-05-04 13:13 | -23.59074 | -45.58930 | 25086 ft | 473 kts | 82° |
| 2026-05-04 13:13 | -23.58553 | -45.55385 | 25206 ft | 474 kts | 81° |
| 2026-05-04 13:13 | -23.58025 | -45.51818 | 25242 ft | 478 kts | 81° |
| 2026-05-04 13:13 | -23.57499 | -45.48240 | 25242 ft | 478 kts | 81° |
| 2026-05-04 13:14 | -23.56932 | -45.44664 | 25239 ft | 479 kts | 79° |
| 2026-05-04 13:14 | -23.56255 | -45.41114 | 25239 ft | 479 kts | 77° |
| 2026-05-04 13:14 | -23.55494 | -45.37583 | 25242 ft | 479 kts | 76° |
| 2026-05-04 13:14 | -23.54693 | -45.34065 | 25246 ft | 478 kts | 76° |
| 2026-05-04 13:15 | -23.53885 | -45.30550 | 25242 ft | 478 kts | 76° |
| 2026-05-04 13:15 | -23.53092 | -45.27034 | 25244 ft | 479 kts | 76° |
| 2026-05-04 13:15 | -23.52319 | -45.23504 | 25240 ft | 479 kts | 77° |
| 2026-05-04 13:15 | -23.51562 | -45.19965 | 25241 ft | 479 kts | 77° |
| 2026-05-04 13:16 | -23.50818 | -45.16429 | 25252 ft | 479 kts | 77° |
| 2026-05-04 13:16 | -23.50078 | -45.12893 | 25249 ft | 479 kts | 77° |
| 2026-05-04 13:16 | -23.49336 | -45.09358 | 25247 ft | 478 kts | 77° |
| 2026-05-04 13:16 | -23.48587 | -45.05833 | 25242 ft | 478 kts | 77° |
| 2026-05-04 13:17 | -23.47833 | -45.02306 | 25237 ft | 478 kts | 77° |
| 2026-05-04 13:17 | -23.47073 | -44.98784 | 25236 ft | 478 kts | 77° |
| 2026-05-04 13:17 | -23.46312 | -44.95262 | 25223 ft | 477 kts | 77° |
| 2026-05-04 13:17 | -23.45551 | -44.91745 | 25214 ft | 477 kts | 76° |
| 2026-05-04 13:18 | -23.44778 | -44.88229 | 25215 ft | 477 kts | 76° |
| 2026-05-04 13:18 | -23.43999 | -44.84716 | 25215 ft | 478 kts | 76° |
| 2026-05-04 13:18 | -23.43213 | -44.81194 | 25025 ft | 479 kts | 76° |
| 2026-05-04 13:18 | -23.42425 | -44.77686 | 24435 ft | 476 kts | 76° |
| 2026-05-04 13:19 | -23.41639 | -44.74189 | 23703 ft | 475 kts | 76° |
| 2026-05-04 13:19 | -23.41120 | -44.71879 | 23198 ft | 473 kts | 76° |
| 2026-05-04 13:19 | -23.40090 | -44.67262 | 22335 ft | 466 kts | 76° |
| 2026-05-04 13:19 | -23.39333 | -44.63852 | 21729 ft | 461 kts | 76° |
| 2026-05-04 13:20 | -23.38582 | -44.60475 | 21147 ft | 457 kts | 76° |
| 2026-05-04 13:20 | -23.37835 | -44.57128 | 20581 ft | 453 kts | 75° |
| 2026-05-04 13:20 | -23.37089 | -44.53811 | 20031 ft | 450 kts | 75° |
| 2026-05-04 13:20 | -23.36347 | -44.50521 | 19486 ft | 447 kts | 75° |
| 2026-05-04 13:21 | -23.35606 | -44.47243 | 18946 ft | 445 kts | 75° |
| 2026-05-04 13:21 | -23.34869 | -44.43980 | 18357 ft | 444 kts | 75° |
| 2026-05-04 13:21 | -23.33893 | -44.40856 | 17785 ft | 439 kts | 64° |
| 2026-05-04 13:21 | -23.32604 | -44.37858 | 17243 ft | 435 kts | 63° |
| 2026-05-04 13:22 | -23.31312 | -44.34863 | 16692 ft | 432 kts | 63° |
| 2026-05-04 13:22 | -23.30040 | -44.31907 | 16136 ft | 428 kts | 64° |
| 2026-05-04 13:22 | -23.28786 | -44.28985 | 15672 ft | 422 kts | 64° |
| 2026-05-04 13:22 | -23.27548 | -44.26094 | 15094 ft | 420 kts | 64° |
| 2026-05-04 13:23 | -23.26324 | -44.23241 | 14531 ft | 412 kts | 64° |
| 2026-05-04 13:23 | -23.25139 | -44.20488 | 14148 ft | 398 kts | 64° |
| 2026-05-04 13:23 | -23.23996 | -44.17838 | 14035 ft | 377 kts | 64° |
| 2026-05-04 13:23 | -23.22911 | -44.15324 | 13896 ft | 357 kts | 64° |
| 2026-05-04 13:24 | -23.21882 | -44.12938 | 13769 ft | 340 kts | 64° |
| 2026-05-04 13:24 | -23.20893 | -44.10645 | 13461 ft | 331 kts | 64° |
| 2026-05-04 13:24 | -23.19922 | -44.08404 | 13019 ft | 327 kts | 64° |
| 2026-05-04 13:25 | -23.17941 | -44.04001 | 12067 ft | 320 kts | 62° |
| 2026-05-04 13:25 | -23.16941 | -44.01848 | 11472 ft | 318 kts | 62° |
| 2026-05-04 13:25 | -23.15948 | -43.99717 | 10907 ft | 315 kts | 62° |
| 2026-05-04 13:25 | -23.14986 | -43.97593 | 10361 ft | 311 kts | 63° |
| 2026-05-04 13:26 | -23.14074 | -43.95482 | 10030 ft | 306 kts | 64° |
| 2026-05-04 13:26 | -23.13188 | -43.93384 | 9860 ft | 306 kts | 64° |
| 2026-05-04 13:26 | -23.12307 | -43.91289 | 9695 ft | 304 kts | 64° |
| 2026-05-04 13:26 | -23.11426 | -43.89200 | 9535 ft | 304 kts | 63° |
| 2026-05-04 13:27 | -23.10543 | -43.87121 | 9377 ft | 302 kts | 63° |
| 2026-05-04 13:27 | -23.09663 | -43.85058 | 9211 ft | 301 kts | 63° |
| 2026-05-04 13:27 | -23.08780 | -43.82995 | 9058 ft | 300 kts | 63° |
| 2026-05-04 13:27 | -23.07899 | -43.80941 | 8894 ft | 299 kts | 63° |
| 2026-05-04 13:28 | -23.07319 | -43.79589 | 8786 ft | 298 kts | 63° |
| 2026-05-04 13:28 | -23.06442 | -43.77551 | 8631 ft | 297 kts | 63° |
| 2026-05-04 13:28 | -23.05569 | -43.75518 | 8470 ft | 297 kts | 63° |
| 2026-05-04 13:28 | -23.04698 | -43.73495 | 8311 ft | 296 kts | 63° |
| 2026-05-04 13:29 | -23.03827 | -43.71473 | 8155 ft | 295 kts | 63° |
| 2026-05-04 13:29 | -23.02963 | -43.69463 | 7993 ft | 294 kts | 63° |
| 2026-05-04 13:29 | -23.02094 | -43.67459 | 7702 ft | 292 kts | 63° |
| 2026-05-04 13:29 | -23.01226 | -43.65472 | 7436 ft | 291 kts | 63° |
| 2026-05-04 13:30 | -23.00359 | -43.63495 | 7167 ft | 289 kts | 62° |
| 2026-05-04 13:30 | -22.99498 | -43.61530 | 6938 ft | 288 kts | 62° |
| 2026-05-04 13:30 | -22.98637 | -43.59568 | 6781 ft | 288 kts | 62° |
| 2026-05-04 13:30 | -22.97775 | -43.57612 | 6615 ft | 287 kts | 62° |
| 2026-05-04 13:31 | -22.96913 | -43.55661 | 6440 ft | 285 kts | 62° |
| 2026-05-04 13:31 | -22.96055 | -43.53719 | 6272 ft | 284 kts | 61° |
| 2026-05-04 13:31 | -22.95209 | -43.51791 | 6109 ft | 282 kts | 62° |
| 2026-05-04 13:31 | -22.94373 | -43.49877 | 5870 ft | 279 kts | 63° |
| 2026-05-04 13:32 | -22.93562 | -43.47979 | 5564 ft | 275 kts | 63° |
| 2026-05-04 13:32 | -22.92772 | -43.46112 | 5250 ft | 269 kts | 64° |
| 2026-05-04 13:32 | -22.92001 | -43.44281 | 4958 ft | 266 kts | 64° |
| 2026-05-04 13:32 | -22.91238 | -43.42473 | 4689 ft | 262 kts | 64° |
| 2026-05-04 13:33 | -22.90483 | -43.40690 | 4469 ft | 259 kts | 64° |
| 2026-05-04 13:33 | -22.89750 | -43.38957 | 4245 ft | 246 kts | 65° |
| 2026-05-04 13:33 | -22.89059 | -43.37323 | 4038 ft | 232 kts | 65° |
| 2026-05-04 13:33 | -22.88473 | -43.35751 | 3839 ft | 219 kts | 75° |
| 2026-05-04 13:34 | -22.88306 | -43.34151 | 3651 ft | 209 kts | 91° |
| 2026-05-04 13:34 | -22.88366 | -43.32604 | 3467 ft | 201 kts | 91° |
| 2026-05-04 13:34 | -22.88417 | -43.31139 | 3333 ft | 186 kts | 90° |
| 2026-05-04 13:34 | -22.88463 | -43.29780 | 3128 ft | 174 kts | 90° |
| 2026-05-04 13:35 | -22.88505 | -43.28520 | 3038 ft | 160 kts | 91° |
| 2026-05-04 13:35 | -22.88641 | -43.26310 | 3039 ft | 138 kts | 101° |
| 2026-05-04 13:35 | -22.88969 | -43.25346 | 3048 ft | 134 kts | 110° |
| 2026-05-04 13:36 | -22.89315 | -43.24416 | 3012 ft | 134 kts | 109° |
| 2026-05-04 13:36 | -22.89685 | -43.23411 | 3026 ft | 150 kts | 109° |
| 2026-05-04 13:36 | -22.90079 | -43.22350 | 3021 ft | 153 kts | 109° |
| 2026-05-04 13:36 | -22.90493 | -43.21285 | 3011 ft | 154 kts | 114° |
| 2026-05-04 13:37 | -22.91142 | -43.20362 | 3006 ft | 156 kts | 133° |
| 2026-05-04 13:37 | -22.92049 | -43.19700 | 3015 ft | 159 kts | 152° |
| 2026-05-04 13:37 | -22.93119 | -43.19386 | 3013 ft | 163 kts | 168° |
| 2026-05-04 13:37 | -22.94155 | -43.18981 | 3012 ft | 157 kts | 136° |
| 2026-05-04 13:38 | -22.94663 | -43.17989 | 3013 ft | 150 kts | 96° |
| 2026-05-04 13:38 | -22.94452 | -43.16913 | 3014 ft | 148 kts | 59° |
| 2026-05-04 13:38 | -22.93654 | -43.16220 | 2982 ft | 152 kts | 26° |
| 2026-05-04 13:38 | -22.92550 | -43.16122 | 2285 ft | 167 kts | 349° |
| 2026-05-04 13:39 | -22.91650 | -43.16859 | 1847 ft | 167 kts | 304° |
| 2026-05-04 13:39 | -22.91547 | -43.18063 | 1584 ft | 166 kts | 251° |
| 2026-05-04 13:39 | -22.92346 | -43.18897 | 1476 ft | 163 kts | 197° |
| 2026-05-04 13:39 | -22.93406 | -43.19051 | 1281 ft | 147 kts | 175° |
| 2026-05-04 13:40 | -22.94384 | -43.18818 | 1119 ft | 142 kts | 156° |
| 2026-05-04 13:40 | -22.95103 | -43.18167 | 953 ft | 134 kts | 115° |
| 2026-05-04 13:40 | -22.95204 | -43.17221 | 884 ft | 126 kts | 75° |
| 2026-05-04 13:40 | -22.94750 | -43.16424 | 762 ft | 128 kts | 37° |
| 2026-05-04 13:41 | -22.93918 | -43.16141 | 550 ft | 131 kts | 6° |
| 2026-05-04 13:41 | -22.93009 | -43.16167 | 274 ft | 127 kts | 0° |
| 2026-05-04 13:41 | -22.92116 | -43.16218 | 144 ft | 129 kts | 359° |
| 2026-05-04 13:42 | -22.90641 | -43.16309 | 25 ft | 47 kts | 356° |
| 2026-05-04 13:42 | -22.90489 | -43.16368 | 24 ft | 15 kts | 271° |
| 2026-05-04 13:42 | -22.90498 | -43.16480 | 23 ft | 16 kts | 266° |
| 2026-05-04 13:42 | -22.90549 | -43.16555 | 22 ft | 14 kts | 183° |
| 2026-05-04 13:43 | -22.90644 | -43.16551 | 22 ft | 14 kts | 177° |
| 2026-05-04 13:43 | -22.90735 | -43.16544 | 25 ft | 13 kts | 174° |
| 2026-05-04 13:43 | -22.90826 | -43.16542 | 22 ft | 13 kts | 184° |
| 2026-05-04 13:43 | -22.90922 | -43.16544 | 25 ft | 14 kts | 179° |
| 2026-05-04 13:44 | -22.91024 | -43.16544 | 22 ft | 15 kts | 181° |
| 2026-05-04 13:44 | -22.91124 | -43.16522 | 24 ft | 13 kts | 169° |
| 2026-05-04 13:44 | -22.91188 | -43.16515 | 24 ft | 9 kts | 175° |
| 2026-05-04 13:44 | -22.91208 | -43.16561 | 22 ft | 7 kts | 268° |
| 2026-05-04 13:45 | -22.91209 | -43.16580 | 22 ft | 0 kts | 266° |
| 2026-05-04 13:45 | -22.91209 | -43.16586 | 22 ft | 1 kts | 266° |